Time,TemperatureF,DewpointF,PressureIn,WindDirection,WindDirectionDegrees,WindSpeedMPH,WindSpeedGustMPH,Humidity,HourlyPrecipIn,Conditions,Clouds,dailyrainin,SoftwareType,DateUTC
2013-12-12 00:00:00,76.0,72.9,30.01,ENE,59,0.0,5.0,90,0.00,,,0.34,Wunderground v.1.15,2013-12-12 06:00:00,
2013-12-12 00:10:00,76.3,73.1,30.01,NE,54,1.0,5.0,90,0.11,,,0.35,Wunderground v.1.15,2013-12-12 06:10:00,
2013-12-12 00:20:00,74.7,71.6,30.01,North,3,5.0,9.0,90,0.99,,,0.51,Wunderground v.1.15,2013-12-12 06:20:00,
2013-12-12 00:30:00,75.1,72.3,30.01,ENE,62,5.0,9.0,91,0.12,,,0.57,Wunderground v.1.15,2013-12-12 06:30:00,
2013-12-12 00:40:00,74.9,72.1,30.00,ENE,68,5.0,6.0,91,0.04,,,0.57,Wunderground v.1.15,2013-12-12 06:40:00,
2013-12-12 00:50:00,74.4,71.6,29.99,NE,47,3.0,3.0,91,0.00,,,0.57,Wunderground v.1.15,2013-12-12 06:50:00,
2013-12-12 01:00:00,73.9,70.8,29.99,NE,51,1.0,1.0,90,0.00,,,0.57,Wunderground v.1.15,2013-12-12 07:00:00,
2013-12-12 01:10:00,74.0,71.2,30.00,NE,49,0.0,1.0,91,0.00,,,0.57,Wunderground v.1.15,2013-12-12 07:10:00,
2013-12-12 01:20:00,74.0,71.2,29.99,NE,51,0.0,0.0,91,0.00,,,0.57,Wunderground v.1.15,2013-12-12 07:20:00,
2013-12-12 01:30:00,74.2,71.4,29.99,NE,48,0.0,0.0,91,0.00,,,0.58,Wunderground v.1.15,2013-12-12 07:30:00,
2013-12-12 01:40:00,74.2,71.4,29.98,NE,48,0.0,2.0,91,0.00,,,0.58,Wunderground v.1.15,2013-12-12 07:40:00,
2013-12-12 01:50:00,74.4,71.9,29.98,NE,48,0.0,0.0,92,0.00,,,0.58,Wunderground v.1.15,2013-12-12 07:50:00,
2013-12-12 02:00:00,74.2,71.7,29.98,NE,49,0.0,0.0,92,0.00,,,0.58,Wunderground v.1.15,2013-12-12 08:00:00,
2013-12-12 02:10:00,74.4,71.9,29.97,NE,52,0.0,2.0,92,0.00,,,0.58,Wunderground v.1.15,2013-12-12 08:10:00,
2013-12-12 02:20:00,74.2,71.7,29.96,NE,49,0.0,3.0,92,0.00,,,0.58,Wunderground v.1.15,2013-12-12 08:20:00,
2013-12-12 02:30:00,74.0,71.5,29.96,NE,49,0.0,3.0,92,0.00,,,0.58,Wunderground v.1.15,2013-12-12 08:30:00,
2013-12-12 02:40:00,74.0,71.5,29.96,NE,49,0.0,1.0,92,0.00,,,0.58,Wunderground v.1.15,2013-12-12 08:40:00,
2013-12-12 02:50:00,74.2,71.7,29.96,NE,49,0.0,0.0,92,0.00,,,0.58,Wunderground v.1.15,2013-12-12 08:50:00,
2013-12-12 03:00:00,74.2,71.7,29.96,NE,49,0.0,0.0,92,0.00,,,0.58,Wunderground v.1.15,2013-12-12 09:00:00,
2013-12-12 03:10:00,74.2,71.7,29.96,NE,51,0.0,2.0,92,0.00,,,0.58,Wunderground v.1.15,2013-12-12 09:10:00,
2013-12-12 03:20:00,74.2,71.7,29.96,NE,48,0.0,0.0,92,0.00,,,0.58,Wunderground v.1.15,2013-12-12 09:20:00,
2013-12-12 03:30:00,74.4,71.9,29.96,NE,51,0.0,0.0,92,0.00,,,0.58,Wunderground v.1.15,2013-12-12 09:30:00,
2013-12-12 03:40:00,74.6,72.1,29.96,NE,48,0.0,0.0,92,0.00,,,0.58,Wunderground v.1.15,2013-12-12 09:40:00,
2013-12-12 03:50:00,74.7,72.5,29.96,NE,52,0.0,2.0,93,0.00,,,0.58,Wunderground v.1.15,2013-12-12 09:50:00,
2013-12-12 04:00:00,74.7,72.5,29.96,NE,51,0.0,2.0,93,0.00,,,0.58,Wunderground v.1.15,2013-12-12 10:00:00,
2013-12-12 04:10:00,74.9,72.7,29.96,NE,51,0.0,2.0,93,0.00,,,0.58,Wunderground v.1.15,2013-12-12 10:10:00,
2013-12-12 04:20:00,74.9,72.7,29.96,NE,52,1.0,3.0,93,0.00,,,0.58,Wunderground v.1.15,2013-12-12 10:20:00,
2013-12-12 04:30:00,74.9,72.7,29.96,NE,48,1.0,1.0,93,0.00,,,0.58,Wunderground v.1.15,2013-12-12 10:30:00,
2013-12-12 04:40:00,74.9,72.7,29.96,NE,52,1.0,1.0,93,0.00,,,0.58,Wunderground v.1.15,2013-12-12 10:40:00,
2013-12-12 04:50:00,75.1,72.9,29.97,NE,52,1.0,1.0,93,0.00,,,0.58,Wunderground v.1.15,2013-12-12 10:50:00,
2013-12-12 05:00:00,75.3,73.1,29.97,NNW,344,2.0,4.0,93,0.00,,,0.58,Wunderground v.1.15,2013-12-12 11:00:00,
2013-12-12 05:10:00,75.6,73.4,29.98,North,349,3.0,3.0,93,0.00,,,0.58,Wunderground v.1.15,2013-12-12 11:10:00,
2013-12-12 05:20:00,76.0,73.8,29.98,North,350,0.0,2.0,93,0.00,,,0.58,Wunderground v.1.15,2013-12-12 11:20:00,
2013-12-12 05:30:00,76.0,73.8,29.98,North,352,0.0,2.0,93,0.00,,,0.58,Wunderground v.1.15,2013-12-12 11:30:00,
2013-12-12 05:40:00,76.3,74.1,29.98,North,359,2.0,3.0,93,0.00,,,0.58,Wunderground v.1.15,2013-12-12 11:40:00,
2013-12-12 05:50:00,76.3,74.1,29.99,NNE,31,2.0,6.0,93,0.00,,,0.58,Wunderground v.1.15,2013-12-12 11:50:00,
2013-12-12 06:00:00,76.1,73.9,29.99,NE,34,1.0,1.0,93,0.00,,,0.58,Wunderground v.1.15,2013-12-12 12:00:00,
2013-12-12 06:10:00,76.0,73.5,29.99,NNE,31,2.0,5.0,92,0.00,,,0.58,Wunderground v.1.15,2013-12-12 12:10:00,
2013-12-12 06:20:00,76.1,73.6,29.99,NNE,14,3.0,7.0,92,0.00,,,0.58,Wunderground v.1.15,2013-12-12 12:20:00,
2013-12-12 06:30:00,76.5,74.0,29.99,NE,38,3.0,7.0,92,0.00,,,0.58,Wunderground v.1.15,2013-12-12 12:30:00,
2013-12-12 06:40:00,76.7,74.2,29.99,NE,42,3.0,3.0,92,0.00,,,0.58,Wunderground v.1.15,2013-12-12 12:40:00,
2013-12-12 06:50:00,76.7,73.9,30.00,NE,56,3.0,12.0,91,0.00,,,0.58,Wunderground v.1.15,2013-12-12 12:50:00,
2013-12-12 07:00:00,76.8,73.6,30.00,ENE,68,3.0,3.0,90,0.00,,,0.58,Wunderground v.1.15,2013-12-12 13:00:00,
2013-12-12 07:10:00,77.2,74.0,30.01,ENE,65,2.0,2.0,90,0.00,,,0.58,Wunderground v.1.15,2013-12-12 13:10:00,
2013-12-12 07:20:00,76.8,73.3,30.01,NE,48,6.0,6.0,89,0.00,,,0.58,Wunderground v.1.15,2013-12-12 13:20:00,
2013-12-12 07:30:00,76.8,73.3,30.01,NE,49,5.0,11.0,89,0.00,,,0.58,Wunderground v.1.15,2013-12-12 13:30:00,
2013-12-12 07:40:00,77.0,72.8,30.02,NE,44,3.0,3.0,87,0.00,,,0.58,Wunderground v.1.15,2013-12-12 13:40:00,
2013-12-12 07:50:00,77.4,72.5,30.02,NE,45,2.0,2.0,85,0.00,,,0.58,Wunderground v.1.15,2013-12-12 13:50:00,
2013-12-12 08:10:00,79.2,73.9,30.03,NE,51,3.0,7.0,84,0.00,,,0.58,Wunderground v.1.15,2013-12-12 14:10:00,
2013-12-12 08:20:00,79.8,74.5,30.04,ENE,71,6.0,12.0,84,0.00,,,0.58,Wunderground v.1.15,2013-12-12 14:20:00,
2013-12-12 08:30:00,80.3,73.9,30.04,ENE,75,7.0,7.0,81,0.00,,,0.58,Wunderground v.1.15,2013-12-12 14:30:00,
2013-12-12 08:40:00,81.1,74.0,30.04,NE,42,6.0,11.0,79,0.00,,,0.58,Wunderground v.1.15,2013-12-12 14:40:00,
2013-12-12 08:50:00,81.4,74.3,30.04,ENE,66,7.0,12.0,79,0.00,,,0.58,Wunderground v.1.15,2013-12-12 14:50:00,
2013-12-12 09:00:00,81.8,75.0,30.04,NE,38,6.0,6.0,80,0.00,,,0.58,Wunderground v.1.15,2013-12-12 15:00:00,
2013-12-12 09:10:00,81.4,74.3,30.04,ENE,66,7.0,10.0,79,0.00,,,0.58,Wunderground v.1.15,2013-12-12 15:10:00,
2013-12-12 09:20:00,82.0,74.1,30.04,NE,40,6.0,10.0,77,0.00,,,0.58,Wunderground v.1.15,2013-12-12 15:20:00,
2013-12-12 09:30:00,82.0,74.5,30.04,NE,45,8.0,12.0,78,0.00,,,0.58,Wunderground v.1.15,2013-12-12 15:30:00,
2013-12-12 09:40:00,81.6,74.1,30.04,ENE,58,8.0,8.0,78,0.00,,,0.58,Wunderground v.1.15,2013-12-12 15:40:00,
2013-12-12 09:50:00,81.6,74.1,30.04,ENE,64,7.0,7.0,78,0.00,,,0.58,Wunderground v.1.15,2013-12-12 15:50:00,
2013-12-12 10:00:00,82.2,73.9,30.04,NNE,28,9.0,9.0,76,0.00,,,0.58,Wunderground v.1.15,2013-12-12 16:00:00,
2013-12-12 10:10:00,82.2,74.3,30.04,NNE,24,9.0,18.0,77,0.00,,,0.58,Wunderground v.1.15,2013-12-12 16:10:00,
2013-12-12 10:20:00,82.2,74.7,30.03,ENE,61,9.0,9.0,78,0.00,,,0.58,Wunderground v.1.15,2013-12-12 16:20:00,
2013-12-12 10:30:00,81.6,74.1,30.03,ENE,61,8.0,14.0,78,0.00,,,0.58,Wunderground v.1.15,2013-12-12 16:30:00,
2013-12-12 10:40:00,82.2,74.7,30.03,NE,55,7.0,7.0,78,0.00,,,0.58,Wunderground v.1.15,2013-12-12 16:40:00,
2013-12-12 10:50:00,82.4,74.8,30.03,ENE,65,6.0,6.0,78,0.00,,,0.58,Wunderground v.1.15,2013-12-12 16:50:00,
2013-12-12 11:00:00,82.6,74.7,30.03,NE,48,6.0,12.0,77,0.00,,,0.58,Wunderground v.1.15,2013-12-12 17:00:00,
2013-12-12 11:10:00,82.8,74.8,30.02,East,86,8.0,16.0,77,0.00,,,0.58,Wunderground v.1.15,2013-12-12 17:10:00,
2013-12-12 11:20:00,83.0,75.0,30.01,NE,48,8.0,8.0,77,0.00,,,0.58,Wunderground v.1.15,2013-12-12 17:20:00,
2013-12-12 11:30:00,81.6,74.5,30.01,NE,51,10.0,17.0,79,0.00,,,0.58,Wunderground v.1.15,2013-12-12 17:30:00,
2013-12-12 11:40:00,81.1,73.6,30.01,NE,44,10.0,17.0,78,0.00,,,0.58,Wunderground v.1.15,2013-12-12 17:40:00,
2013-12-12 11:50:00,82.2,73.9,30.00,NE,55,9.0,9.0,76,0.00,,,0.00,Wunderground v.1.15,2013-12-12 17:50:00,
2013-12-12 12:00:00,82.8,73.7,30.00,ENE,65,9.0,9.0,74,0.00,,,0.00,Wunderground v.1.15,2013-12-12 18:00:00,
2013-12-12 12:10:00,83.2,73.6,29.98,NE,34,9.0,17.0,73,0.00,,,0.00,Wunderground v.1.15,2013-12-12 18:10:00,
2013-12-12 12:20:00,83.0,74.3,29.98,NE,52,11.0,11.0,75,0.00,,,0.00,Wunderground v.1.15,2013-12-12 18:20:00,
2013-12-12 12:30:00,82.8,73.7,29.98,East,80,11.0,11.0,74,0.00,,,0.00,Wunderground v.1.15,2013-12-12 18:30:00,
2013-12-12 12:40:00,83.2,74.4,29.97,NE,51,9.0,19.0,75,0.00,,,0.00,Wunderground v.1.15,2013-12-12 18:40:00,
2013-12-12 12:50:00,81.2,73.3,29.97,NE,35,12.0,18.0,77,0.55,,,0.02,Wunderground v.1.15,2013-12-12 18:50:00,
2013-12-12 13:00:00,79.0,73.0,29.97,ENE,78,7.0,7.0,82,0.06,,,0.02,Wunderground v.1.15,2013-12-12 19:00:00,
2013-12-12 13:10:00,79.6,74.7,29.96,NE,45,7.0,13.0,85,0.00,,,0.02,Wunderground v.1.15,2013-12-12 19:10:00,
2013-12-12 13:20:00,80.9,74.9,29.95,ESE,110,6.0,14.0,82,0.00,,,0.02,Wunderground v.1.15,2013-12-12 19:20:00,
2013-12-12 13:30:00,81.4,74.6,29.95,ENE,76,8.0,8.0,80,0.00,,,0.02,Wunderground v.1.15,2013-12-12 19:30:00,
2013-12-12 13:40:00,81.1,74.3,29.95,ENE,72,7.0,7.0,80,0.00,,,0.02,Wunderground v.1.15,2013-12-12 19:40:00,
2013-12-12 13:50:00,80.1,74.5,29.95,ENE,78,6.0,6.0,83,0.00,,,0.03,Wunderground v.1.15,2013-12-12 19:50:00,
2013-12-12 14:00:00,77.7,71.8,29.95,NNE,30,14.0,14.0,82,0.00,,,0.03,Wunderground v.1.15,2013-12-12 20:00:00,
2013-12-12 14:10:00,77.0,71.1,29.96,ENE,72,13.0,13.0,82,0.00,,,0.03,Wunderground v.1.15,2013-12-12 20:10:00,
2013-12-12 14:20:00,76.7,71.5,29.95,East,82,9.0,9.0,84,0.00,,,0.03,Wunderground v.1.15,2013-12-12 20:20:00,
2013-12-12 14:30:00,76.5,71.7,29.95,ENE,58,6.0,17.0,85,0.00,,,0.03,Wunderground v.1.15,2013-12-12 20:30:00,
2013-12-12 14:40:00,77.0,72.1,29.95,NE,49,4.0,13.0,85,0.00,,,0.03,Wunderground v.1.15,2013-12-12 20:40:00,
2013-12-12 14:50:00,77.7,72.8,29.94,ENE,72,5.0,5.0,85,0.00,,,0.03,Wunderground v.1.15,2013-12-12 20:50:00,
2013-12-12 15:00:00,78.6,73.4,29.94,East,100,5.0,5.0,84,0.00,,,0.03,Wunderground v.1.15,2013-12-12 21:00:00,
2013-12-12 15:10:00,79.4,73.8,29.95,East,82,5.0,9.0,83,0.00,,,0.03,Wunderground v.1.15,2013-12-12 21:10:00,
2013-12-12 15:20:00,79.9,73.5,29.94,ENE,76,6.0,10.0,81,0.00,,,0.03,Wunderground v.1.15,2013-12-12 21:20:00,
2013-12-12 15:30:00,80.3,72.4,29.94,NE,42,9.0,9.0,77,0.00,,,0.03,Wunderground v.1.15,2013-12-12 21:30:00,
2013-12-12 15:40:00,80.3,72.8,29.94,ENE,75,8.0,18.0,78,0.00,,,0.03,Wunderground v.1.15,2013-12-12 21:40:00,
2013-12-12 15:50:00,78.6,73.0,29.94,ENE,64,9.0,9.0,83,0.10,,,0.07,Wunderground v.1.15,2013-12-12 21:50:00,
2013-12-12 16:00:00,78.5,73.6,29.94,East,99,6.0,14.0,85,0.04,,,0.07,Wunderground v.1.15,2013-12-12 22:00:00,
2013-12-12 16:10:00,76.1,72.3,29.96,East,96,12.0,12.0,88,0.56,,,0.31,Wunderground v.1.15,2013-12-12 22:10:00,
2013-12-12 16:20:00,76.8,73.6,29.95,ESE,104,6.0,12.0,90,0.05,,,0.31,Wunderground v.1.15,2013-12-12 22:20:00,
2013-12-12 16:30:00,77.4,74.2,29.95,NE,45,4.0,12.0,90,0.04,,,0.32,Wunderground v.1.15,2013-12-12 22:30:00,
2013-12-12 16:40:00,75.6,72.1,29.95,East,92,9.0,9.0,89,0.15,,,0.34,Wunderground v.1.15,2013-12-12 22:40:00,
2013-12-12 16:50:00,74.6,71.1,29.96,ENE,59,11.0,19.0,89,0.38,,,0.43,Wunderground v.1.15,2013-12-12 22:50:00,
2013-12-12 17:00:00,75.6,72.5,29.96,East,96,7.0,7.0,90,0.05,,,0.43,Wunderground v.1.15,2013-12-12 23:00:00,
2013-12-12 17:10:00,76.5,73.3,29.96,East,100,5.0,5.0,90,0.00,,,0.43,Wunderground v.1.15,2013-12-12 23:10:00,
2013-12-12 17:20:00,76.8,73.3,29.96,NNE,28,7.0,14.0,89,0.00,,,0.43,Wunderground v.1.15,2013-12-12 23:20:00,
2013-12-12 17:30:00,77.6,73.1,29.96,ENE,61,9.0,9.0,86,0.00,,,0.43,Wunderground v.1.15,2013-12-12 23:30:00,
2013-12-12 17:40:00,77.9,72.7,29.96,ENE,75,9.0,9.0,84,0.00,,,0.43,Wunderground v.1.15,2013-12-12 23:40:00,
2013-12-12 17:50:00,78.1,72.2,29.96,NE,47,9.0,9.0,82,0.00,,,0.43,Wunderground v.1.15,2013-12-12 23:50:00,
2013-12-12 18:00:00,78.5,72.2,29.96,East,89,8.0,8.0,81,0.00,,,0.43,Wunderground v.1.15,2013-12-13 00:00:00,
2013-12-12 18:10:00,78.8,72.8,29.96,ENE,68,8.0,8.0,82,0.00,,,0.43,Wunderground v.1.15,2013-12-13 00:10:00,
2013-12-12 18:20:00,78.8,72.8,29.96,ENE,61,9.0,9.0,82,0.00,,,0.43,Wunderground v.1.15,2013-12-13 00:20:00,
2013-12-12 18:30:00,78.8,72.5,29.96,ENE,59,9.0,9.0,81,0.00,,,0.43,Wunderground v.1.15,2013-12-13 00:30:00,
2013-12-12 18:40:00,79.0,72.3,29.96,NE,55,10.0,10.0,80,0.00,,,0.43,Wunderground v.1.15,2013-12-13 00:40:00,
2013-12-12 18:50:00,79.0,72.7,29.97,NE,54,8.0,8.0,81,0.00,,,0.43,Wunderground v.1.15,2013-12-13 00:50:00,
2013-12-12 19:00:00,79.0,72.7,29.97,NNE,20,9.0,9.0,81,0.00,,,0.43,Wunderground v.1.15,2013-12-13 01:00:00,
2013-12-12 19:10:00,78.8,72.8,29.97,NE,49,9.0,19.0,82,0.00,,,0.43,Wunderground v.1.15,2013-12-13 01:10:00,
2013-12-12 19:20:00,78.6,73.0,29.97,NE,56,12.0,19.0,83,0.00,,,0.43,Wunderground v.1.15,2013-12-13 01:20:00,
2013-12-12 19:30:00,78.5,73.3,29.97,ENE,64,9.0,19.0,84,0.00,,,0.43,Wunderground v.1.15,2013-12-13 01:30:00,
2013-12-12 19:40:00,78.6,73.0,29.97,ENE,73,9.0,9.0,83,0.00,,,0.43,Wunderground v.1.15,2013-12-13 01:40:00,
2013-12-12 19:50:00,78.5,73.6,29.97,ENE,78,9.0,9.0,85,0.00,,,0.43,Wunderground v.1.15,2013-12-13 01:50:00,
2013-12-12 20:00:00,77.9,73.4,29.97,NE,52,9.0,9.0,86,0.07,,,0.44,Wunderground v.1.15,2013-12-13 02:00:00,
2013-12-12 20:10:00,77.9,73.0,29.97,ENE,69,9.0,14.0,85,0.00,,,0.44,Wunderground v.1.15,2013-12-13 02:10:00,
2013-12-12 20:20:00,77.7,71.8,29.98,NE,49,10.0,10.0,82,0.00,,,0.44,Wunderground v.1.15,2013-12-13 02:20:00,
2013-12-12 20:30:00,77.7,72.1,29.98,NE,42,9.0,9.0,83,0.00,,,0.44,Wunderground v.1.15,2013-12-13 02:30:00,
2013-12-12 20:40:00,77.7,72.8,29.97,ENE,71,7.0,7.0,85,0.00,,,0.44,Wunderground v.1.15,2013-12-13 02:40:00,
2013-12-12 20:50:00,77.9,73.0,29.97,ENE,69,8.0,8.0,85,0.00,,,0.44,Wunderground v.1.15,2013-12-13 02:50:00,
2013-12-12 21:00:00,77.0,72.1,29.97,NE,44,9.0,9.0,85,3.03,,,0.55,Wunderground v.1.15,2013-12-13 03:00:00,
2013-12-12 21:10:00,76.5,72.7,29.98,NE,52,11.0,26.0,88,0.06,,,0.56,Wunderground v.1.15,2013-12-13 03:10:00,
2013-12-12 21:20:00,76.1,72.6,29.98,ESE,106,11.0,11.0,89,0.00,,,0.56,Wunderground v.1.15,2013-12-13 03:20:00,
2013-12-12 21:30:00,77.0,73.8,29.98,ENE,71,8.0,8.0,90,0.00,,,0.56,Wunderground v.1.15,2013-12-13 03:30:00,
2013-12-12 21:40:00,77.2,73.7,29.98,NE,49,9.0,9.0,89,0.00,,,0.56,Wunderground v.1.15,2013-12-13 03:40:00,
2013-12-12 21:50:00,77.4,73.9,29.98,NE,54,7.0,12.0,89,0.10,,,0.60,Wunderground v.1.15,2013-12-13 03:50:00,
2013-12-12 22:00:00,77.0,73.5,29.98,NE,55,11.0,13.0,89,0.04,,,0.60,Wunderground v.1.15,2013-12-13 04:00:00,
2013-12-12 22:10:00,77.0,73.5,29.98,NE,51,10.0,10.0,89,0.00,,,0.60,Wunderground v.1.15,2013-12-13 04:10:00,
2013-12-12 22:20:00,77.4,73.9,29.97,NE,45,8.0,8.0,89,0.00,,,0.60,Wunderground v.1.15,2013-12-13 04:20:00,
2013-12-12 22:30:00,77.2,73.0,29.97,East,95,8.0,8.0,87,0.00,,,0.60,Wunderground v.1.15,2013-12-13 04:30:00,
2013-12-12 22:40:00,77.9,73.4,29.97,ENE,61,9.0,17.0,86,0.00,,,0.60,Wunderground v.1.15,2013-12-13 04:40:00,
2013-12-12 22:50:00,77.9,73.4,29.97,ENE,58,8.0,8.0,86,0.00,,,0.60,Wunderground v.1.15,2013-12-13 04:50:00,
2013-12-12 23:00:00,78.1,73.6,29.97,NE,37,8.0,8.0,86,0.00,,,0.60,Wunderground v.1.15,2013-12-13 05:00:00,
2013-12-12 23:10:00,77.7,72.8,29.96,East,80,7.0,7.0,85,0.00,,,0.60,Wunderground v.1.15,2013-12-13 05:10:00,
2013-12-12 23:20:00,77.7,73.5,29.97,ENE,75,5.0,5.0,87,0.16,,,0.62,Wunderground v.1.15,2013-12-13 05:20:00,
2013-12-12 23:30:00,77.2,72.7,29.97,NE,55,8.0,13.0,86,0.04,,,0.62,Wunderground v.1.15,2013-12-13 05:30:00,
2013-12-12 23:40:00,76.1,72.3,29.96,NE,48,9.0,9.0,88,0.00,,,0.62,Wunderground v.1.15,2013-12-13 05:40:00,
2013-12-12 23:50:00,76.7,73.2,29.95,NE,47,7.0,7.0,89,0.00,,,0.62,Wunderground v.1.15,2013-12-13 05:50:00,